Time;durP1;ratioP1;P1;durP2;ratioP2;P2;SDS_P1;SDS_P2;PMS_P1;PMS_P2;Temp;Humidity;BMP_temperature;BMP_pressure;BME280_temperature;BME280_humidity;BME280_pressure;Samples;Min_cycle;Max_cycle;Signal;HPM_P1;HPM_P2
2022/06/15 00:00:29;;;;;;;5.72;2.97;;;12.80;99.90;;;;;;5074117;28;20052;-77
2022/06/15 00:02:55;;;;;;;3.67;2.60;;;12.80;99.90;;;;;;5047090;28;20044;-79
2022/06/15 00:05:21;;;;;;;4.35;2.83;;;12.80;99.90;;;;;;5075971;28;20044;-77
2022/06/15 00:07:47;;;;;;;4.22;2.65;;;12.80;99.90;;;;;;5094115;28;20135;-78
2022/06/15 00:10:12;;;;;;;5.97;2.80;;;12.80;99.90;;;;;;5094099;28;20040;-77
2022/06/15 00:12:38;;;;;;;4.88;2.97;;;12.80;99.90;;;;;;5094033;28;20076;-77
2022/06/15 00:15:05;;;;;;;4.50;2.95;;;12.80;99.90;;;;;;5068039;28;20044;-77
2022/06/15 00:17:31;;;;;;;4.18;2.75;;;12.70;99.90;;;;;;5055265;28;20051;-77
2022/06/15 00:19:56;;;;;;;5.65;3.08;;;12.70;99.90;;;;;;5073747;28;20052;-77
2022/06/15 00:22:22;;;;;;;5.15;3.00;;;12.70;99.90;;;;;;5073052;28;20045;-77
2022/06/15 00:24:48;;;;;;;4.05;2.60;;;12.70;99.90;;;;;;5074707;28;20062;-77
2022/06/15 00:27:13;;;;;;;4.30;2.72;;;12.70;99.90;;;;;;5075296;28;20126;-77
2022/06/15 00:29:39;;;;;;;5.78;2.90;;;12.70;99.90;;;;;;5093677;28;20471;-77
2022/06/15 00:32:06;;;;;;;4.57;2.80;;;12.60;99.90;;;;;;5093640;28;20036;-77
2022/06/15 00:34:32;;;;;;;4.20;2.58;;;12.60;99.90;;;;;;5093643;28;20109;-77
2022/06/15 00:36:57;;;;;;;5.95;3.15;;;12.50;99.90;;;;;;5093286;28;20043;-77
2022/06/15 00:39:23;;;;;;;3.83;2.72;;;12.50;99.90;;;;;;5093551;28;20043;-78
2022/06/15 00:41:49;;;;;;;4.35;2.78;;;12.40;99.90;;;;;;5081667;28;20041;-77
2022/06/15 00:44:24;;;;;;;5.38;2.85;;;12.30;99.90;;;;;;5073245;28;20051;-77
2022/06/15 00:46:59;;;;;;;4.32;2.60;;;12.20;99.90;;;;;;5073485;28;20051;-77
2022/06/15 00:49:31;;;;;;;5.60;2.97;;;12.10;99.90;;;;;;5073046;28;20045;-77
2022/06/15 00:52:07;;;;;;;6.90;3.33;;;12.10;99.90;;;;;;5072980;28;20049;-77
2022/06/15 00:54:33;;;;;;;6.10;2.80;;;12.10;99.90;;;;;;5073245;28;20127;-77
2022/06/15 00:57:01;;;;;;;4.45;3.13;;;12.00;99.90;;;;;;5054867;28;20052;-77
2022/06/15 00:59:57;;;;;;;4.97;2.60;;;12.00;99.90;;;;;;5072836;28;20156;-77
2022/06/15 01:02:24;;;;;;;5.30;3.20;;;12.00;99.90;;;;;;5067989;28;20117;-77
2022/06/15 01:04:57;;;;;;;4.68;3.28;;;12.00;99.90;;;;;;5075303;28;20040;-77
2022/06/15 01:07:51;;;;;;;7.18;3.35;;;12.00;99.90;;;;;;5093533;28;20052;-77
2022/06/15 01:10:44;;;;;;;5.13;3.35;;;12.00;99.90;;;;;;5075122;28;20052;-77
2022/06/15 01:13:34;;;;;;;4.35;3.20;;;12.00;99.90;;;;;;5030984;28;20056;-77
2022/06/15 01:16:19;;;;;;;4.15;3.15;;;12.00;99.90;;;;;;5091890;28;20054;-77
2022/06/15 01:19:14;;;;;;;5.13;3.03;;;12.00;99.90;;;;;;5054815;28;20082;-77
2022/06/15 01:21:49;;;;;;;4.05;2.92;;;12.00;99.90;;;;;;5054568;28;20076;-77
2022/06/15 01:24:20;;;;;;;5.47;3.42;;;12.00;99.90;;;;;;5068884;28;20052;-76
2022/06/15 01:27:11;;;;;;;5.03;3.15;;;12.00;99.90;;;;;;5074170;28;20055;-77
2022/06/15 01:29:54;;;;;;;5.30;3.40;;;12.00;99.90;;;;;;5071653;28;20059;-77
2022/06/15 01:32:40;;;;;;;5.07;3.42;;;12.00;99.90;;;;;;5071652;28;20044;-77
2022/06/15 01:35:21;;;;;;;5.45;3.50;;;12.00;99.90;;;;;;5082811;28;20773;-77
2022/06/15 01:38:19;;;;;;;5.38;3.33;;;12.00;99.90;;;;;;5074286;28;20547;-77
2022/06/15 01:41:08;;;;;;;4.82;3.28;;;11.90;99.90;;;;;;5073159;28;20134;-77
2022/06/15 01:43:41;;;;;;;5.60;3.65;;;11.90;99.90;;;;;;5079696;28;20063;-78
2022/06/15 01:46:08;;;;;;;5.82;3.30;;;11.90;99.90;;;;;;5054604;28;20559;-77
2022/06/15 01:48:35;;;;;;;4.75;3.38;;;11.80;99.90;;;;;;5072004;28;20106;-77
2022/06/15 01:51:11;;;;;;;7.63;3.58;;;11.80;99.90;;;;;;5072009;28;20049;-77
2022/06/15 01:54:15;;;;;;;5.87;3.37;;;11.80;99.90;;;;;;5053630;28;20048;-77
2022/06/15 01:56:45;;;;;;;4.85;3.17;;;11.70;99.90;;;;;;5039969;28;20423;-77
2022/06/15 01:59:19;;;;;;;5.65;3.40;;;11.60;99.90;;;;;;5079636;28;20047;-77
2022/06/15 02:02:04;;;;;;;4.57;3.47;;;11.60;99.90;;;;;;5091762;28;20052;-77
2022/06/15 02:04:44;;;;;;;6.00;3.53;;;11.50;99.90;;;;;;5091821;28;20047;-77
2022/06/15 02:07:10;;;;;;;4.93;3.28;;;11.40;99.90;;;;;;5091736;28;20048;-78
2022/06/15 02:10:00;;;;;;;6.30;3.40;;;11.40;99.90;;;;;;5073923;28;20100;-77
2022/06/15 02:12:38;;;;;;;5.68;3.63;;;11.40;99.90;;;;;;5092025;28;20087;-77
2022/06/15 02:15:05;;;;;;;5.50;4.20;;;11.30;99.90;;;;;;5079519;28;20114;-77
2022/06/15 02:17:45;;;;;;;5.18;3.53;;;11.30;99.90;;;;;;5071334;28;20040;-77
2022/06/15 02:20:17;;;;;;;4.65;3.33;;;11.20;99.90;;;;;;5053523;28;20053;-77
2022/06/15 02:22:45;;;;;;;5.20;3.58;;;11.30;99.90;;;;;;5073308;28;20048;-77
2022/06/15 02:25:17;;;;;;;5.20;3.22;;;11.30;99.90;;;;;;5091298;28;20500;-77
2022/06/15 02:27:45;;;;;;;6.20;3.80;;;11.30;99.90;;;;;;5090923;28;20048;-77
2022/06/15 02:30:15;;;;;;;6.45;3.92;;;11.30;99.90;;;;;;5073492;28;20495;-77
2022/06/15 02:32:43;;;;;;;5.13;3.67;;;11.20;99.90;;;;;;5091496;28;20398;-77
2022/06/15 02:35:09;;;;;;;4.45;3.38;;;11.20;99.90;;;;;;5091497;28;20472;-77
2022/06/15 02:37:35;;;;;;;5.50;3.60;;;11.20;99.90;;;;;;5091360;28;20499;-77
2022/06/15 02:40:01;;;;;;;5.68;3.90;;;11.10;99.90;;;;;;5090985;28;20048;-77
2022/06/15 02:42:36;;;;;;;7.22;4.25;;;11.00;99.90;;;;;;5064523;28;20045;-77
2022/06/15 02:45:08;;;;;;;7.00;3.95;;;11.00;99.90;;;;;;5071219;28;20076;-77
2022/06/15 02:47:38;;;;;;;5.93;3.60;;;11.00;99.90;;;;;;5053136;28;20056;-77
2022/06/15 02:50:05;;;;;;;7.35;3.72;;;10.90;99.90;;;;;;5071244;28;20053;-77
2022/06/15 02:52:37;;;;;;;7.32;3.80;;;10.90;99.90;;;;;;5071072;28;20043;-77
2022/06/15 02:55:03;;;;;;;5.82;3.92;;;10.90;99.90;;;;;;5070884;28;20365;-78
2022/06/15 02:57:29;;;;;;;7.05;3.85;;;10.90;99.90;;;;;;5070210;28;20515;-77
2022/06/15 02:59:55;;;;;;;8.52;4.18;;;10.90;99.90;;;;;;5052589;28;20048;-78
2022/06/15 03:02:21;;;;;;;5.15;3.60;;;10.90;99.90;;;;;;5070953;28;20048;-77
2022/06/15 03:04:48;;;;;;;6.22;3.75;;;10.90;99.90;;;;;;5073610;28;20048;-77
2022/06/15 03:07:15;;;;;;;5.38;3.67;;;10.90;99.90;;;;;;5059633;28;20056;-77
2022/06/15 03:09:41;;;;;;;6.20;3.90;;;10.90;99.90;;;;;;5059554;28;20060;-78
2022/06/15 03:12:07;;;;;;;5.53;3.67;;;10.90;99.90;;;;;;5059440;28;20044;-77
2022/06/15 03:14:34;;;;;;;6.28;3.92;;;10.90;99.90;;;;;;5067706;28;20056;-77
2022/06/15 03:17:00;;;;;;;5.68;4.07;;;10.90;99.90;;;;;;5097513;28;20124;-77
2022/06/15 03:19:27;;;;;;;6.32;4.07;;;10.90;99.90;;;;;;5097675;28;20083;-77
2022/06/15 03:21:53;;;;;;;7.78;4.05;;;10.80;99.90;;;;;;5097716;28;20036;-77
2022/06/15 03:24:20;;;;;;;6.97;3.97;;;10.80;99.90;;;;;;5097189;28;20044;-78
2022/06/15 03:26:46;;;;;;;7.65;4.28;;;10.80;99.90;;;;;;5061177;28;20048;-77
2022/06/15 03:29:11;;;;;;;7.40;4.10;;;10.90;99.90;;;;;;5057571;28;20559;-78
2022/06/15 03:31:37;;;;;;;6.18;4.00;;;10.80;99.90;;;;;;5057746;28;20064;-78
2022/06/15 03:34:03;;;;;;;7.47;3.78;;;10.80;99.90;;;;;;5093384;28;20051;-77
2022/06/15 03:36:29;;;;;;;6.30;4.30;;;10.80;99.90;;;;;;5078285;28;20090;-77
2022/06/15 03:38:54;;;;;;;6.07;3.90;;;10.80;99.90;;;;;;5097834;28;20051;-78
2022/06/15 03:41:20;;;;;;;5.70;3.47;;;10.80;99.90;;;;;;5097674;28;20071;-77
2022/06/15 03:43:46;;;;;;;6.28;3.85;;;10.80;99.90;;;;;;5087666;28;20052;-77
2022/06/15 03:46:12;;;;;;;7.65;4.15;;;10.90;99.90;;;;;;5076142;28;20481;-78
2022/06/15 03:48:38;;;;;;;5.72;3.88;;;10.90;99.90;;;;;;5075192;28;20040;-78
2022/06/15 03:51:04;;;;;;;6.78;4.28;;;10.90;99.90;;;;;;5076115;28;20044;-79
2022/06/15 03:53:30;;;;;;;8.10;4.57;;;10.90;99.90;;;;;;5077229;28;20048;-78
2022/06/15 03:55:56;;;;;;;5.45;3.90;;;10.90;99.90;;;;;;5076148;28;20404;-78
2022/06/15 03:58:22;;;;;;;7.85;4.75;;;11.00;99.90;;;;;;5076760;28;20194;-79
2022/06/15 04:00:49;;;;;;;5.68;3.88;;;11.00;99.90;;;;;;5059433;28;20040;-78
2022/06/15 04:03:15;;;;;;;6.75;4.28;;;11.10;99.90;;;;;;5077238;28;20044;-78
2022/06/15 04:05:52;;;;;;;7.75;4.22;;;11.10;99.90;;;;;;5058981;28;20129;-78
2022/06/15 04:08:35;;;;;;;7.65;4.60;;;11.10;99.90;;;;;;5058350;28;20053;-79
2022/06/15 04:11:07;;;;;;;5.72;4.50;;;11.10;99.90;;;;;;5059267;28;20063;-78
2022/06/15 04:13:33;;;;;;;6.25;4.28;;;11.20;99.90;;;;;;5076848;28;20049;-78
2022/06/15 04:15:59;;;;;;;6.13;4.18;;;11.30;99.90;;;;;;5095511;28;20048;-78
2022/06/15 04:18:25;;;;;;;7.25;4.60;;;11.30;99.90;;;;;;5093693;28;20043;-78
2022/06/15 04:20:51;;;;;;;9.27;4.75;;;11.40;99.90;;;;;;5094018;28;20048;-77
2022/06/15 04:23:19;;;;;;;6.47;3.90;;;11.50;99.90;;;;;;5075919;28;20056;-78
2022/06/15 04:26:00;;;;;;;6.43;4.40;;;11.50;99.90;;;;;;5075698;28;20121;-78
2022/06/15 04:28:31;;;;;;;9.07;4.95;;;11.50;99.90;;;;;;5073658;28;20055;-78
2022/06/15 04:30:57;;;;;;;6.38;4.40;;;11.60;99.90;;;;;;5073803;28;20503;-78
2022/06/15 04:33:24;;;;;;;6.63;4.40;;;11.70;99.90;;;;;;5055706;28;20037;-78
2022/06/15 04:35:50;;;;;;;7.15;4.88;;;11.70;99.90;;;;;;5073388;28;20064;-78
2022/06/15 04:38:16;;;;;;;7.75;5.03;;;11.70;99.90;;;;;;5073980;28;20201;-78
2022/06/15 04:40:42;;;;;;;8.15;4.82;;;11.80;99.90;;;;;;5057328;28;20123;-78
2022/06/15 04:43:08;;;;;;;7.72;4.70;;;11.80;99.90;;;;;;5093698;28;20102;-78
2022/06/15 04:45:35;;;;;;;7.50;4.68;;;11.90;99.90;;;;;;5093540;28;20067;-78
2022/06/15 04:48:02;;;;;;;9.98;5.47;;;12.00;99.90;;;;;;5072735;28;20044;-78
2022/06/15 04:50:28;;;;;;;8.57;4.97;;;12.10;99.90;;;;;;5093160;28;20048;-78
2022/06/15 04:52:54;;;;;;;6.70;4.63;;;12.20;99.90;;;;;;5072125;28;20113;-78
2022/06/15 04:55:22;;;;;;;9.35;5.13;;;12.30;99.90;;;;;;5090615;28;20126;-78
2022/06/15 04:57:50;;;;;;;7.15;5.20;;;12.40;99.90;;;;;;5092557;28;20047;-77
2022/06/15 05:00:18;;;;;;;8.07;5.45;;;12.50;99.90;;;;;;5092963;28;20400;-78
2022/06/15 05:02:45;;;;;;;8.63;5.25;;;12.50;99.90;;;;;;5093452;28;20411;-80
2022/06/15 05:05:10;;;;;;;8.57;5.10;;;12.60;99.90;;;;;;5093030;28;20039;-77
2022/06/15 05:07:36;;;;;;;6.45;4.50;;;12.70;99.90;;;;;;5075140;28;20047;-78
2022/06/15 05:10:03;;;;;;;6.05;4.68;;;12.80;99.90;;;;;;5093125;28;20039;-78
2022/06/15 05:12:29;;;;;;;6.80;5.00;;;12.90;99.90;;;;;;5092845;28;20052;-77
2022/06/15 05:14:55;;;;;;;7.90;5.10;;;12.90;99.90;;;;;;5084549;28;20044;-78
2022/06/15 05:17:23;;;;;;;9.40;5.28;;;13.00;99.90;;;;;;5072729;28;20516;-78
2022/06/15 05:19:49;;;;;;;7.85;5.30;;;13.10;99.90;;;;;;5054993;28;20044;-78
2022/06/15 05:22:15;;;;;;;8.32;5.07;;;13.20;99.90;;;;;;5072557;28;20106;-78
2022/06/15 05:24:40;;;;;;;8.98;5.28;;;13.30;99.90;;;;;;5071620;28;20059;-77
2022/06/15 05:27:07;;;;;;;7.65;4.90;;;13.50;99.90;;;;;;5074275;28;20468;-80
2022/06/15 05:29:35;;;;;;;7.45;4.93;;;13.60;99.90;;;;;;5092631;28;20078;-79
2022/06/15 05:32:03;;;;;;;7.70;5.13;;;13.60;99.90;;;;;;5092619;28;20101;-78
2022/06/15 05:34:29;;;;;;;7.00;4.63;;;13.70;99.90;;;;;;5092736;28;20048;-78
2022/06/15 05:36:54;;;;;;;7.63;5.30;;;13.80;99.90;;;;;;5093425;28;20050;-78
2022/06/15 05:39:20;;;;;;;8.18;5.47;;;13.90;99.90;;;;;;5093574;28;20052;-78
2022/06/15 05:41:49;;;;;;;8.98;4.55;;;14.00;99.90;;;;;;5063897;28;20051;-78
2022/06/15 05:46:58;;;;;;;7.47;4.85;;;14.20;99.90;;;;;;5092616;28;20056;-78
2022/06/15 05:49:24;;;;;;;8.77;4.75;;;14.30;99.90;;;;;;5074148;28;20055;-79
2022/06/15 05:51:50;;;;;;;8.73;5.00;;;14.40;99.90;;;;;;5092249;28;20395;-78
2022/06/15 05:54:16;;;;;;;9.55;5.00;;;14.50;99.90;;;;;;5073586;28;20369;-79
2022/06/15 05:56:41;;;;;;;8.98;5.18;;;14.50;99.90;;;;;;5073605;28;20131;-77
2022/06/15 05:59:07;;;;;;;8.52;4.88;;;14.60;99.90;;;;;;5091959;28;20098;-79
2022/06/15 06:01:35;;;;;;;8.35;4.70;;;14.60;99.90;;;;;;5092064;28;20052;-78
2022/06/15 06:04:01;;;;;;;11.20;4.75;;;14.70;99.90;;;;;;5091925;28;20131;-80
2022/06/15 06:06:28;;;;;;;8.10;4.97;;;14.70;99.90;;;;;;5073879;28;20136;-78
2022/06/15 06:08:54;;;;;;;7.05;4.22;;;14.80;99.90;;;;;;5091628;28;20048;-77
2022/06/15 06:11:21;;;;;;;7.25;5.05;;;14.90;99.90;;;;;;5091743;28;20459;-78
2022/06/15 06:13:47;;;;;;;6.55;5.00;;;15.00;99.90;;;;;;5091746;28;20078;-78
2022/06/15 06:16:13;;;;;;;6.97;4.18;;;15.10;99.90;;;;;;5064168;28;20686;-79
2022/06/15 06:18:39;;;;;;;6.78;4.40;;;15.20;99.90;;;;;;5071313;28;20055;-77
2022/06/15 06:21:05;;;;;;;6.50;4.38;;;15.40;99.90;;;;;;5053385;28;20048;-78
2022/06/15 06:23:34;;;;;;;6.22;4.55;;;15.50;99.90;;;;;;5080056;28;20054;-78
2022/06/15 06:26:01;;;;;;;8.68;4.88;;;15.60;99.90;;;;;;5090979;28;20121;-77
2022/06/15 06:28:31;;;;;;;6.55;4.05;;;15.70;99.90;;;;;;5073265;28;20056;-78
2022/06/15 06:30:59;;;;;;;7.18;4.30;;;15.70;99.90;;;;;;5091092;28;20384;-83
2022/06/15 06:33:26;;;;;;;7.20;4.28;;;15.80;99.90;;;;;;5091558;28;20150;-79
2022/06/15 06:35:54;;;;;;;7.57;4.20;;;15.90;99.90;;;;;;5091539;28;20051;-78
2022/06/15 06:38:21;;;;;;;6.20;4.10;;;16.00;99.90;;;;;;5091347;28;20059;-81
2022/06/15 06:40:49;;;;;;;5.43;3.88;;;16.10;99.90;;;;;;5090443;28;20044;-78
2022/06/15 06:43:15;;;;;;;4.88;3.50;;;16.20;99.90;;;;;;5091610;28;20052;-80
2022/06/15 06:45:42;;;;;;;5.47;3.45;;;16.20;99.90;;;;;;5053852;28;20052;-79
2022/06/15 06:48:08;;;;;;;6.30;3.38;;;16.40;99.90;;;;;;5071068;28;20106;-79
2022/06/15 06:50:36;;;;;;;6.60;3.90;;;16.40;99.90;;;;;;5070768;28;20777;-78
2022/06/15 06:53:03;;;;;;;8.50;4.00;;;16.50;99.90;;;;;;5070960;28;20500;-78
2022/06/15 06:55:29;;;;;;;6.20;3.60;;;16.60;99.90;;;;;;5071288;28;20044;-79
2022/06/15 06:58:00;;;;;;;6.50;3.70;;;16.70;99.90;;;;;;5052687;28;20056;-79
2022/06/15 07:00:27;;;;;;;5.30;3.40;;;16.80;99.90;;;;;;5070568;28;20060;-79
2022/06/15 07:02:53;;;;;;;6.03;3.50;;;17.00;99.90;;;;;;5053051;28;20199;-80
2022/06/15 07:05:19;;;;;;;5.75;3.55;;;17.00;99.90;;;;;;5053028;28;20544;-78
2022/06/15 07:07:45;;;;;;;4.60;3.00;;;17.10;99.90;;;;;;5051665;28;20063;-72
2022/06/15 07:10:12;;;;;;;4.75;3.10;;;17.20;99.90;;;;;;5074043;28;20051;-71
2022/06/15 07:12:41;;;;;;;5.07;3.45;;;17.30;99.90;;;;;;5083154;28;20044;-70
2022/06/15 07:15:07;;;;;;;6.55;3.47;;;17.40;99.90;;;;;;5049814;28;20059;-70
2022/06/15 07:17:33;;;;;;;5.93;3.33;;;17.50;99.90;;;;;;5087149;28;20143;-70
2022/06/15 07:19:59;;;;;;;4.68;2.80;;;17.60;99.90;;;;;;5070004;28;20128;-70
2022/06/15 07:22:25;;;;;;;5.30;2.90;;;17.70;99.90;;;;;;5070144;28;20045;-71
2022/06/15 07:24:50;;;;;;;5.22;2.90;;;17.80;99.90;;;;;;5090084;28;20392;-70
2022/06/15 07:27:17;;;;;;;5.30;2.80;;;17.90;99.90;;;;;;5090190;28;20157;-72
2022/06/15 07:29:46;;;;;;;4.70;2.90;;;17.90;99.90;;;;;;5069952;28;20093;-72
2022/06/15 07:32:13;;;;;;;4.95;2.50;;;18.00;99.90;;;;;;5070595;28;20048;-72
2022/06/15 07:34:39;;;;;;;4.22;2.60;;;18.10;99.90;;;;;;5069846;28;20046;-71
2022/06/15 07:37:05;;;;;;;5.70;2.50;;;18.20;99.90;;;;;;5070131;28;20062;-72
2022/06/15 07:39:31;;;;;;;4.50;2.20;;;18.30;99.90;;;;;;5069949;28;20492;-72
2022/06/15 07:41:57;;;;;;;5.63;2.25;;;18.40;99.90;;;;;;5082485;28;20403;-72
2022/06/15 07:44:25;;;;;;;6.90;3.10;;;18.50;99.90;;;;;;5090407;28;20104;-71
2022/06/15 07:49:54;;;;;;;4.68;2.15;;;18.70;99.90;;;;;;5090084;28;20056;-71
2022/06/15 07:52:24;;;;;;;3.35;1.67;;;18.70;99.90;;;;;;5092091;28;20083;-72
2022/06/15 07:54:50;;;;;;;4.22;2.10;;;18.80;99.90;;;;;;5072363;28;20118;-72
2022/06/15 07:57:17;;;;;;;4.50;2.08;;;18.90;99.90;;;;;;5071981;28;20059;-72
2022/06/15 07:59:42;;;;;;;5.25;2.38;;;18.90;99.90;;;;;;5093369;28;20064;-72
2022/06/15 08:02:09;;;;;;;4.18;2.05;;;19.00;99.90;;;;;;5093609;28;20109;-72
2022/06/15 08:04:35;;;;;;;4.32;2.05;;;19.00;99.90;;;;;;5094135;28;20048;-70
2022/06/15 08:07:00;;;;;;;4.78;1.90;;;19.10;99.90;;;;;;5093685;28;20048;-71
2022/06/15 08:09:27;;;;;;;3.75;1.65;;;19.10;99.90;;;;;;5075667;28;20052;-71
2022/06/15 08:12:11;;;;;;;2.42;1.20;;;19.20;99.90;;;;;;5093399;28;20051;-72
2022/06/15 08:14:40;;;;;;;4.03;1.33;;;19.30;99.90;;;;;;5084824;28;20575;-71
2022/06/15 08:17:08;;;;;;;4.07;1.60;;;19.40;99.90;;;;;;5090159;28;20047;-72
2022/06/15 08:19:37;;;;;;;4.57;1.60;;;19.40;99.90;;;;;;5093019;28;20051;-70
2022/06/15 08:22:04;;;;;;;3.30;1.50;;;19.50;99.90;;;;;;5072016;28;20451;-72
2022/06/15 08:24:31;;;;;;;2.20;1.40;;;19.50;99.90;;;;;;5076550;28;20127;-71
2022/06/15 08:26:57;;;;;;;2.60;1.33;;;19.50;99.90;;;;;;5072894;28;20060;-72
2022/06/15 08:29:23;;;;;;;4.15;1.38;;;19.60;99.90;;;;;;5072944;28;20059;-73
2022/06/15 08:31:49;;;;;;;3.38;1.73;;;19.70;99.90;;;;;;5073032;28;20087;-74
2022/06/15 08:34:15;;;;;;;2.30;1.10;;;19.80;99.90;;;;;;5055438;28;20476;-74
2022/06/15 08:36:40;;;;;;;2.10;1.10;;;19.90;99.90;;;;;;5081018;28;20363;-75
2022/06/15 08:39:06;;;;;;;2.20;1.20;;;20.10;99.90;;;;;;5052375;28;20097;-73
2022/06/15 08:41:47;;;;;;;3.35;1.30;;;20.20;99.90;;;;;;5068487;28;20048;-73
2022/06/15 08:44:35;;;;;;;2.33;1.17;;;20.30;99.90;;;;;;5073326;28;20091;-71
2022/06/15 08:47:07;;;;;;;3.83;1.48;;;20.30;99.90;;;;;;5072049;28;20051;-72
2022/06/15 08:49:40;;;;;;;2.35;1.17;;;20.30;99.90;;;;;;5072166;28;20059;-72
2022/06/15 08:52:14;;;;;;;4.03;1.35;;;20.10;99.90;;;;;;5075881;28;20558;-70
2022/06/15 08:54:51;;;;;;;4.43;1.30;;;20.10;99.90;;;;;;5065980;28;20153;-72
2022/06/15 08:57:46;;;;;;;3.50;1.52;;;20.10;99.90;;;;;;5071878;28;20052;-73
2022/06/15 09:00:34;;;;;;;2.97;1.30;;;20.20;99.90;;;;;;5072331;28;20064;-70
2022/06/15 09:03:17;;;;;;;2.85;1.20;;;20.30;99.90;;;;;;5072048;28;20045;-70
2022/06/15 09:06:13;;;;;;;3.42;1.30;;;20.30;99.90;;;;;;5072150;28;20558;-71
2022/06/15 09:09:05;;;;;;;3.35;1.20;;;20.30;99.90;;;;;;5072599;28;20468;-71
2022/06/15 09:11:42;;;;;;;3.75;1.38;;;20.30;99.90;;;;;;5085091;28;20119;-74
2022/06/15 09:14:40;;;;;;;4.38;1.40;;;20.40;99.90;;;;;;5071019;28;20079;-72
2022/06/15 09:17:13;;;;;;;3.22;1.40;;;20.40;99.90;;;;;;5072652;28;20129;-70
2022/06/15 09:19:46;;;;;;;2.55;1.40;;;20.50;99.90;;;;;;5072089;28;20052;-71
2022/06/15 09:22:18;;;;;;;3.88;1.42;;;20.60;99.90;;;;;;5071699;28;20472;-71
2022/06/15 09:24:49;;;;;;;3.28;1.50;;;20.70;99.90;;;;;;5057754;28;20032;-70
2022/06/15 09:27:22;;;;;;;1.83;1.23;;;20.50;99.90;;;;;;5070929;28;20488;-71
2022/06/15 09:29:55;;;;;;;3.25;1.40;;;20.20;99.90;;;;;;5072076;28;20053;-71
2022/06/15 09:32:24;;;;;;;3.72;1.67;;;20.20;99.90;;;;;;5071364;28;20036;-71
2022/06/15 09:35:29;;;;;;;3.10;1.25;;;20.30;99.90;;;;;;5053591;28;20053;-71
2022/06/15 09:37:58;;;;;;;4.05;1.60;;;20.30;99.90;;;;;;5081132;28;20084;-72
2022/06/15 09:40:34;;;;;;;4.15;1.60;;;20.50;99.90;;;;;;5071521;28;20053;-71
2022/06/15 09:43:06;;;;;;;4.40;1.80;;;20.50;99.90;;;;;;5071877;28;20044;-70
2022/06/15 09:45:34;;;;;;;3.70;1.48;;;20.60;99.90;;;;;;5076788;28;20040;-71
2022/06/15 09:48:30;;;;;;;2.63;1.40;;;20.50;99.90;;;;;;5091025;28;20047;-71
2022/06/15 09:51:05;;;;;;;2.60;1.38;;;20.50;99.90;;;;;;5091962;28;20044;-71
2022/06/15 09:53:52;;;;;;;3.60;1.58;;;20.50;99.90;;;;;;5092167;28;20090;-70
2022/06/15 09:56:20;;;;;;;3.90;1.73;;;20.60;99.90;;;;;;5090307;28;20052;-71
2022/06/15 09:59:03;;;;;;;3.25;1.85;;;20.50;99.90;;;;;;5090862;28;20099;-71
2022/06/15 10:01:33;;;;;;;4.20;2.05;;;20.40;99.90;;;;;;5091618;28;20190;-71
2022/06/15 10:04:02;;;;;;;3.13;1.35;;;20.50;99.90;;;;;;5091316;28;20097;-71
2022/06/15 10:06:41;;;;;;;7.57;2.40;;;20.60;99.90;;;;;;5091417;28;20056;-72
2022/06/15 10:09:10;;;;;;;2.75;1.40;;;20.70;99.90;;;;;;5072641;28;20039;-70
2022/06/15 10:11:41;;;;;;;3.13;1.50;;;20.70;99.90;;;;;;5091486;28;20071;-71
2022/06/15 10:14:24;;;;;;;4.10;1.50;;;20.80;99.90;;;;;;5090577;28;20046;-71
2022/06/15 10:17:02;;;;;;;3.90;1.77;;;20.80;99.90;;;;;;5084203;28;20377;-71
2022/06/15 10:19:31;;;;;;;2.50;1.35;;;20.80;99.90;;;;;;5088509;28;20301;-71
2022/06/15 10:22:01;;;;;;;2.28;1.48;;;20.80;99.90;;;;;;5073570;28;20052;-70
2022/06/15 10:24:34;;;;;;;2.55;1.30;;;20.80;99.90;;;;;;5069498;28;20396;-70
2022/06/15 10:27:34;;;;;;;7.03;1.98;;;20.80;99.90;;;;;;5090567;28;20047;-71
2022/06/15 10:30:11;;;;;;;13.45;2.70;;;20.70;99.90;;;;;;5031389;28;20496;-71
2022/06/15 10:32:56;;;;;;;2.80;1.30;;;20.80;99.90;;;;;;5076862;28;20040;-71
2022/06/15 10:35:21;;;;;;;5.22;1.33;;;20.80;99.90;;;;;;5091167;28;20428;-70
2022/06/15 10:37:49;;;;;;;3.15;1.40;;;20.80;99.90;;;;;;5091084;28;20081;-70
2022/06/15 10:40:29;;;;;;;3.95;1.40;;;20.80;99.90;;;;;;5087537;28;20047;-70
2022/06/15 10:43:15;;;;;;;2.28;1.30;;;20.90;99.90;;;;;;5060335;28;20044;-69
2022/06/15 10:45:59;;;;;;;3.92;1.50;;;20.90;99.90;;;;;;5071227;28;20106;-70
2022/06/15 10:48:49;;;;;;;2.67;1.50;;;20.90;99.90;;;;;;5069580;28;20047;-70
2022/06/15 10:51:33;;;;;;;3.13;1.30;;;20.90;99.90;;;;;;5069951;28;20098;-69
2022/06/15 10:54:17;;;;;;;2.60;1.30;;;21.00;99.90;;;;;;5069465;28;20052;-70
2022/06/15 11:02:31;;;;;;;3.33;1.63;;;21.10;99.90;;;;;;5073943;28;20051;-72
2022/06/15 11:05:13;;;;;;;5.13;1.52;;;21.00;99.90;;;;;;5071983;28;20127;-71
2022/06/15 11:07:47;;;;;;;2.95;1.50;;;20.90;99.90;;;;;;5072127;28;20388;-71
2022/06/15 11:10:20;;;;;;;2.17;1.52;;;20.90;99.90;;;;;;5071333;28;20087;-70
2022/06/15 11:13:03;;;;;;;2.65;1.35;;;21.00;99.90;;;;;;5089939;28;20079;-71
2022/06/15 11:18:39;;;;;;;2.70;1.40;;;21.20;99.90;;;;;;5070673;28;20140;-71
2022/06/15 11:21:25;;;;;;;2.97;1.70;;;21.30;99.90;;;;;;5069439;28;20087;-73
2022/06/15 11:24:06;;;;;;;5.07;2.03;;;21.40;99.90;;;;;;5080845;28;20123;-71
2022/06/15 11:26:57;;;;;;;4.00;1.63;;;21.40;99.90;;;;;;5091583;28;20044;-70
2022/06/15 11:29:44;;;;;;;3.03;1.60;;;21.30;99.90;;;;;;5093479;28;20456;-70
2022/06/15 11:32:31;;;;;;;4.20;1.90;;;21.30;99.90;;;;;;5093330;28;20467;-71
2022/06/15 11:35:18;;;;;;;2.85;1.50;;;21.20;99.90;;;;;;5093446;28;20612;-69
2022/06/15 11:37:55;;;;;;;3.50;1.63;;;21.20;99.90;;;;;;5072345;28;20048;-71
2022/06/15 11:40:25;;;;;;;2.95;1.40;;;21.20;99.90;;;;;;5076722;28;20048;-71
2022/06/15 11:42:52;;;;;;;2.97;1.58;;;21.30;99.90;;;;;;5073254;28;20798;-70
2022/06/15 11:45:22;;;;;;;2.63;1.65;;;21.40;99.90;;;;;;5073044;28;20055;-70
2022/06/15 11:48:11;;;;;;;3.35;1.65;;;21.40;99.90;;;;;;5055361;28;20094;-70
2022/06/15 11:51:14;;;;;;;3.65;1.45;;;21.50;99.90;;;;;;5072131;28;20526;-72
2022/06/15 11:54:10;;;;;;;2.55;1.40;;;21.50;99.90;;;;;;5092817;28;20567;-70
2022/06/15 11:56:48;;;;;;;3.55;1.70;;;21.50;99.90;;;;;;5044517;28;20064;-71
2022/06/15 11:59:33;;;;;;;3.42;1.70;;;21.60;99.90;;;;;;5092335;28;20054;-71
2022/06/15 12:02:23;;;;;;;2.92;1.50;;;21.60;99.90;;;;;;5092793;28;20454;-70
2022/06/15 12:05:21;;;;;;;2.67;1.50;;;21.50;99.90;;;;;;5093172;28;20079;-71
2022/06/15 12:07:53;;;;;;;4.53;1.42;;;21.50;99.90;;;;;;5058590;28;20055;-70
2022/06/15 12:10:49;;;;;;;3.55;1.98;;;21.50;99.90;;;;;;5092583;28;20143;-70
2022/06/15 12:13:34;;;;;;;5.03;1.80;;;21.60;99.90;;;;;;5092709;28;20052;-70
2022/06/15 12:16:31;;;;;;;2.70;1.77;;;21.50;99.90;;;;;;5082121;28;20044;-70
2022/06/15 12:19:07;;;;;;;4.07;1.98;;;21.50;99.90;;;;;;5091961;28;20106;-69
2022/06/15 12:21:33;;;;;;;3.40;1.88;;;21.60;99.90;;;;;;5091783;28;20044;-72
2022/06/15 12:24:36;;;;;;;3.30;1.50;;;21.60;99.90;;;;;;5086416;28;20055;-71
2022/06/15 12:27:23;;;;;;;4.45;1.90;;;21.70;99.90;;;;;;5071687;28;20080;-71
2022/06/15 12:29:55;;;;;;;3.47;2.08;;;21.70;99.90;;;;;;5072066;28;20071;-71
2022/06/15 12:32:36;;;;;;;5.28;2.00;;;21.70;99.90;;;;;;5071866;28;20044;-70
2022/06/15 12:35:49;;;;;;;3.80;1.92;;;21.80;99.90;;;;;;5076362;28;20044;-71
2022/06/15 12:38:49;;;;;;;4.05;1.60;;;21.80;99.90;;;;;;5048508;28;20825;-70
2022/06/15 12:44:12;;;;;;;3.17;1.60;;;21.80;99.90;;;;;;5073958;28;20060;-79
2022/06/15 12:46:38;;;;;;;4.90;1.75;;;21.80;99.90;;;;;;5071969;28;20045;-69
2022/06/15 12:49:19;;;;;;;4.05;2.00;;;21.70;99.90;;;;;;5077916;28;20550;-69
2022/06/15 12:52:06;;;;;;;3.28;1.50;;;21.60;99.90;;;;;;5083574;28;20040;-68
2022/06/15 12:55:10;;;;;;;2.75;1.48;;;21.70;99.90;;;;;;5069968;28;20044;-69
2022/06/15 12:58:15;;;;;;;2.92;1.70;;;21.60;99.90;;;;;;5071471;28;20452;-69
2022/06/15 13:01:04;;;;;;;3.35;1.50;;;21.60;99.90;;;;;;5086530;28;20080;-72
2022/06/15 13:03:45;;;;;;;3.03;1.60;;;21.60;99.90;;;;;;5076248;28;20056;-72
2022/06/15 13:06:22;;;;;;;3.03;1.50;;;21.50;99.90;;;;;;5088959;28;20098;-69
2022/06/15 13:09:08;;;;;;;2.80;1.67;;;21.60;99.90;;;;;;5091848;28;20587;-69
2022/06/15 13:11:46;;;;;;;3.35;1.60;;;21.50;99.90;;;;;;5091930;28;20119;-68
2022/06/15 13:14:19;;;;;;;3.72;1.83;;;21.60;99.90;;;;;;5091886;28;20047;-68
2022/06/15 13:16:57;;;;;;;3.85;1.50;;;21.70;99.90;;;;;;5073325;28;20052;-69
2022/06/15 13:19:33;;;;;;;2.40;1.52;;;21.80;99.90;;;;;;5091983;28;20043;-69
2022/06/15 13:22:10;;;;;;;3.45;1.90;;;22.00;99.90;;;;;;5091275;28;20373;-69
2022/06/15 13:25:04;;;;;;;2.83;1.50;;;22.00;99.90;;;;;;5091418;28;20043;-69
2022/06/15 13:27:39;;;;;;;2.80;1.63;;;22.10;99.90;;;;;;5056688;28;20043;-68
2022/06/15 13:30:13;;;;;;;3.70;1.70;;;22.00;99.90;;;;;;5090734;28;20093;-68
2022/06/15 13:33:04;;;;;;;2.75;1.52;;;21.90;99.90;;;;;;5091499;28;20121;-68
2022/06/15 13:35:32;;;;;;;3.03;1.50;;;21.90;99.90;;;;;;5091319;28;20055;-68